Time;durP1;ratioP1;P1;durP2;ratioP2;P2;SDS_P1;SDS_P2;PMS_P1;PMS_P2;Temp;Humidity;BMP_temperature;BMP_pressure;BME280_temperature;BME280_humidity;BME280_pressure;Samples;Min_cycle;Max_cycle;Signal;HPM_P1;HPM_P2
2022/05/02 00:02:10;;;;;;;16.75;7.80;;;;;;;;;;5050339;28;20037;-70
2022/05/02 00:05:15;;;;;;;16.30;8.48;;;;;;;;;;5050921;28;20033;-70
2022/05/02 00:08:19;;;;;;;19.13;8.90;;;;;;;;;;5050823;28;20049;-71
2022/05/02 00:11:23;;;;;;;17.10;8.63;;;;;;;;;;5050812;28;20324;-70
2022/05/02 00:14:28;;;;;;;17.55;8.43;;;;;;;;;;5050982;28;20415;-70
2022/05/02 00:21:06;;;;;;;17.63;8.68;;;;;;;;;;5050164;28;20041;-70
2022/05/02 00:24:10;;;;;;;12.77;8.13;;;;;;;;;;5050394;28;20041;-71
2022/05/02 00:27:15;;;;;;;18.58;9.27;;;;;;;;;;5050401;28;20041;-71
2022/05/02 00:30:19;;;;;;;20.42;9.10;;;;;;;;;;5050671;28;20052;-71
2022/05/02 00:33:25;;;;;;;16.23;8.48;;;;;;;;;;5050528;28;20037;-71
2022/05/02 00:36:29;;;;;;;14.07;8.65;;;;;;;;;;5050821;28;20041;-71
2022/05/02 00:39:34;;;;;;;15.27;9.50;;;;;;;;;;5050564;28;20049;-70
2022/05/02 00:42:39;;;;;;;13.32;9.75;;;;;;;;;;5050772;28;20029;-70
2022/05/02 00:45:44;;;;;;;17.70;8.20;;;;;;;;;;5038578;28;20049;-70
2022/05/02 00:48:48;;;;;;;17.75;8.82;;;;;;;;;;5050646;28;20033;-70
2022/05/02 00:51:52;;;;;;;18.05;8.88;;;;;;;;;;5050399;28;20049;-71
2022/05/02 00:54:57;;;;;;;15.45;9.18;;;;;;;;;;5050589;28;20036;-71
2022/05/02 00:58:02;;;;;;;15.48;9.00;;;;;;;;;;5050258;28;20040;-71
2022/05/02 01:01:07;;;;;;;18.75;9.32;;;;;;;;;;5050339;28;20037;-71
2022/05/02 01:04:11;;;;;;;14.43;9.05;;;;;;;;;;5050488;28;20041;-70
2022/05/02 01:07:21;;;;;;;14.43;9.02;;;;;;;;;;5050327;28;20501;-70
2022/05/02 01:10:27;;;;;;;18.23;9.43;;;;;;;;;;5049358;28;20504;-70
2022/05/02 01:13:35;;;;;;;15.80;9.77;;;;;;;;;;5050341;28;20029;-70
2022/05/02 01:16:39;;;;;;;15.25;9.07;;;;;;;;;;5052399;28;20045;-70
2022/05/02 01:19:44;;;;;;;12.90;8.63;;;;;;;;;;5053978;28;20449;-70
2022/05/02 01:22:48;;;;;;;11.32;8.15;;;;;;;;;;5053804;28;20037;-71
2022/05/02 01:25:53;;;;;;;14.65;8.57;;;;;;;;;;5053820;28;20045;-70
2022/05/02 01:28:59;;;;;;;16.73;8.95;;;;;;;;;;5052720;28;20041;-70
2022/05/02 01:32:06;;;;;;;15.93;8.77;;;;;;;;;;5053662;28;20049;-70
2022/05/02 01:35:10;;;;;;;21.60;8.63;;;;;;;;;;5053430;28;20374;-70
2022/05/02 01:38:15;;;;;;;13.93;8.52;;;;;;;;;;5053469;28;20049;-70
2022/05/02 01:41:20;;;;;;;15.77;8.45;;;;;;;;;;5053212;28;20037;-70
2022/05/02 01:44:24;;;;;;;14.25;9.00;;;;;;;;;;5053521;28;20041;-70
2022/05/02 01:47:28;;;;;;;15.68;8.88;;;;;;;;;;5053327;28;20378;-70
2022/05/02 01:50:33;;;;;;;14.75;8.52;;;;;;;;;;5053136;28;20045;-70
2022/05/02 01:53:37;;;;;;;14.48;9.30;;;;;;;;;;5053180;28;20041;-71
2022/05/02 01:56:42;;;;;;;12.25;8.20;;;;;;;;;;5053184;28;20037;-70
2022/05/02 01:59:46;;;;;;;13.35;9.35;;;;;;;;;;5052292;28;20264;-70
2022/05/02 02:02:50;;;;;;;13.85;8.57;;;;;;;;;;5053164;28;20472;-70
2022/05/02 02:05:55;;;;;;;14.23;8.35;;;;;;;;;;5052781;28;20389;-70
2022/05/02 02:09:01;;;;;;;11.60;8.68;;;;;;;;;;5029313;28;20037;-70
2022/05/02 02:12:06;;;;;;;14.18;9.02;;;;;;;;;;5053045;28;20045;-71
2022/05/02 02:15:14;;;;;;;16.17;9.95;;;;;;;;;;5053037;28;20040;-71
2022/05/02 02:18:18;;;;;;;18.40;9.75;;;;;;;;;;5052566;28;20037;-71
2022/05/02 02:21:22;;;;;;;17.70;10.60;;;;;;;;;;5052603;28;20029;-71
2022/05/02 02:24:26;;;;;;;14.80;10.98;;;;;;;;;;5052609;28;20044;-70
2022/05/02 02:27:31;;;;;;;18.38;11.18;;;;;;;;;;5052356;28;20051;-71
2022/05/02 02:30:35;;;;;;;18.17;10.90;;;;;;;;;;5051552;28;20512;-70
2022/05/02 02:33:40;;;;;;;14.25;10.48;;;;;;;;;;5052729;28;20048;-71
2022/05/02 02:36:44;;;;;;;14.88;9.13;;;;;;;;;;5052250;28;20043;-70
2022/05/02 02:39:49;;;;;;;21.02;10.55;;;;;;;;;;5052388;28;20037;-70
2022/05/02 02:42:53;;;;;;;14.32;10.10;;;;;;;;;;5052266;28;20036;-70
2022/05/02 02:45:57;;;;;;;14.38;9.93;;;;;;;;;;5052264;28;20068;-70
2022/05/02 02:49:02;;;;;;;12.77;9.75;;;;;;;;;;5052248;28;20041;-71
2022/05/02 02:52:08;;;;;;;11.65;8.55;;;;;;;;;;5052486;28;20373;-70
2022/05/02 02:55:12;;;;;;;16.33;9.07;;;;;;;;;;5052448;28;20041;-71
2022/05/02 02:58:16;;;;;;;16.60;9.43;;;;;;;;;;5051929;28;20037;-70
2022/05/02 03:01:21;;;;;;;15.02;9.07;;;;;;;;;;5051759;28;20370;-71
2022/05/02 03:07:48;;;;;;;12.38;8.35;;;;;;;;;;5051790;28;20370;-71
2022/05/02 03:10:55;;;;;;;11.90;8.20;;;;;;;;;;5051652;28;20045;-70
2022/05/02 03:13:59;;;;;;;16.05;9.20;;;;;;;;;;5051597;28;20037;-70
2022/05/02 03:17:03;;;;;;;13.65;8.90;;;;;;;;;;5051471;28;20040;-70
2022/05/02 03:20:08;;;;;;;10.90;8.68;;;;;;;;;;5050806;28;20287;-70
2022/05/02 03:23:12;;;;;;;12.88;8.90;;;;;;;;;;5051720;28;20029;-70
2022/05/02 03:26:21;;;;;;;13.07;8.65;;;;;;;;;;5051496;28;20045;-70
2022/05/02 03:29:25;;;;;;;12.35;9.23;;;;;;;;;;5051456;28;20033;-70
2022/05/02 03:32:30;;;;;;;17.30;8.77;;;;;;;;;;5050274;28;20049;-70
2022/05/02 03:35:34;;;;;;;12.68;8.52;;;;;;;;;;5051268;28;20041;-70
2022/05/02 03:38:38;;;;;;;16.33;8.45;;;;;;;;;;5049824;28;20037;-70
2022/05/02 03:41:42;;;;;;;12.82;8.52;;;;;;;;;;5050186;28;20041;-70
2022/05/02 03:44:47;;;;;;;17.05;8.35;;;;;;;;;;5051003;28;20052;-70
2022/05/02 03:47:51;;;;;;;14.70;8.68;;;;;;;;;;5050990;28;20041;-69
2022/05/02 03:50:55;;;;;;;12.20;8.07;;;;;;;;;;5050749;28;20049;-70
2022/05/02 03:54:00;;;;;;;13.88;8.48;;;;;;;;;;5051062;28;20037;-71
2022/05/02 03:57:04;;;;;;;23.70;10.05;;;;;;;;;;5051215;28;20041;-70
2022/05/02 04:00:09;;;;;;;27.48;10.55;;;;;;;;;;5051258;28;20068;-70
2022/05/02 04:03:16;;;;;;;22.35;9.27;;;;;;;;;;5051196;28;20054;-70
2022/05/02 04:06:21;;;;;;;23.13;9.93;;;;;;;;;;5051490;28;20041;-70
2022/05/02 04:09:25;;;;;;;26.05;10.57;;;;;;;;;;5039207;28;20461;-70
2022/05/02 04:12:39;;;;;;;24.90;11.25;;;;;;;;;;5051975;28;20116;-70
2022/05/02 04:15:43;;;;;;;25.02;10.38;;;;;;;;;;5051553;28;20047;-70
2022/05/02 04:18:48;;;;;;;27.35;9.93;;;;;;;;;;5051624;28;20045;-71
2022/05/02 04:21:52;;;;;;;20.55;10.07;;;;;;;;;;5051680;28;20037;-70
2022/05/02 04:24:56;;;;;;;22.48;10.80;;;;;;;;;;5051515;28;20052;-71
2022/05/02 04:28:00;;;;;;;41.22;9.95;;;;;;;;;;5051253;28;20040;-70
2022/05/02 04:31:05;;;;;;;18.60;9.77;;;;;;;;;;5050798;28;20045;-71
2022/05/02 04:34:11;;;;;;;19.48;8.98;;;;;;;;;;5051385;28;20496;-71
2022/05/02 04:37:16;;;;;;;12.57;9.48;;;;;;;;;;5051127;28;20041;-71
2022/05/02 04:40:20;;;;;;;15.60;10.30;;;;;;;;;;5051589;28;20033;-70
2022/05/02 04:43:24;;;;;;;23.33;13.32;;;;;;;;;;5051513;28;20044;-71
2022/05/02 04:46:29;;;;;;;19.80;10.85;;;;;;;;;;5050996;28;20064;-71
2022/05/02 04:49:33;;;;;;;15.90;10.00;;;;;;;;;;5050956;28;20044;-71
2022/05/02 04:52:38;;;;;;;19.13;10.00;;;;;;;;;;5055067;28;20059;-71
2022/05/02 04:55:42;;;;;;;26.25;10.25;;;;;;;;;;5054894;28;20040;-70
2022/05/02 04:58:47;;;;;;;63.50;13.45;;;;;;;;;;5053791;28;20056;-71
2022/05/02 05:01:52;;;;;;;38.75;12.10;;;;;;;;;;5054860;28;20044;-71
2022/05/02 05:04:56;;;;;;;20.50;12.07;;;;;;;;;;5055102;28;20060;-71
2022/05/02 05:08:01;;;;;;;25.23;13.45;;;;;;;;;;5054204;28;20401;-71
2022/05/02 05:11:05;;;;;;;29.48;14.00;;;;;;;;;;5054312;28;20094;-70
2022/05/02 05:17:41;;;;;;;38.60;13.95;;;;;;;;;;5054904;28;20396;-71
2022/05/02 05:20:48;;;;;;;29.58;15.68;;;;;;;;;;5054045;28;20056;-71
2022/05/02 05:24:05;;;;;;;26.02;13.45;;;;;;;;;;5053952;28;20055;-70
2022/05/02 05:27:45;;;;;;;33.20;13.88;;;;;;;;;;5053698;28;20413;-70
2022/05/02 05:30:53;;;;;;;28.60;13.45;;;;;;;;;;5051693;28;20052;-71
2022/05/02 05:34:06;;;;;;;31.77;15.73;;;;;;;;;;5041956;28;20405;-71
2022/05/02 05:37:29;;;;;;;29.10;14.25;;;;;;;;;;5053045;28;20035;-71
2022/05/02 05:40:42;;;;;;;27.05;13.93;;;;;;;;;;5053568;28;20495;-69
2022/05/02 05:43:58;;;;;;;28.85;14.15;;;;;;;;;;5053342;28;20407;-69
2022/05/02 05:47:06;;;;;;;35.83;14.93;;;;;;;;;;5052414;28;20495;-70
2022/05/02 05:50:29;;;;;;;35.97;13.95;;;;;;;;;;5053359;28;20044;-71
2022/05/02 05:53:34;;;;;;;30.02;13.85;;;;;;;;;;5052684;28;20052;-70
2022/05/02 05:56:44;;;;;;;22.52;14.82;;;;;;;;;;5052780;28;20071;-69
2022/05/02 05:59:58;;;;;;;25.88;14.77;;;;;;;;;;5053170;28;20044;-69
2022/05/02 06:03:12;;;;;;;32.15;14.43;;;;;;;;;;5029323;28;20051;-69
2022/05/02 06:06:16;;;;;;;24.83;13.88;;;;;;;;;;5052879;28;20389;-70
2022/05/02 06:09:21;;;;;;;31.55;14.40;;;;;;;;;;5052773;28;20056;-70
2022/05/02 06:12:25;;;;;;;39.80;16.33;;;;;;;;;;5052963;28;20052;-70
2022/05/02 06:18:54;;;;;;;38.47;17.08;;;;;;;;;;5053451;28;20044;-70
2022/05/02 06:22:00;;;;;;;30.45;14.30;;;;;;;;;;5053233;28;20040;-71
2022/05/02 06:25:05;;;;;;;26.88;13.95;;;;;;;;;;5052211;28;20048;-68
2022/05/02 06:28:09;;;;;;;28.10;14.20;;;;;;;;;;5052336;28;20039;-69
2022/05/02 06:31:18;;;;;;;22.63;12.57;;;;;;;;;;5051751;28;20523;-66
2022/05/02 06:34:26;;;;;;;21.08;11.48;;;;;;;;;;5052605;28;20401;-69
2022/05/02 06:37:33;;;;;;;13.70;9.15;;;;;;;;;;5052121;28;20064;-70
2022/05/02 06:40:44;;;;;;;22.42;11.73;;;;;;;;;;5052296;28;20044;-70
2022/05/02 06:44:01;;;;;;;25.17;10.85;;;;;;;;;;5052316;28;20107;-70
2022/05/02 06:47:11;;;;;;;18.05;9.63;;;;;;;;;;5052139;28;20064;-70
2022/05/02 06:50:20;;;;;;;12.68;9.52;;;;;;;;;;5052300;28;20063;-69
2022/05/02 06:53:33;;;;;;;18.77;8.48;;;;;;;;;;5052270;28;20477;-69
2022/05/02 06:56:37;;;;;;;18.98;9.95;;;;;;;;;;5052538;28;20276;-69
2022/05/02 07:00:00;;;;;;;27.65;9.95;;;;;;;;;;5052293;28;20045;-69
2022/05/02 07:03:05;;;;;;;17.90;8.70;;;;;;;;;;5052277;28;20049;-70
2022/05/02 07:06:15;;;;;;;27.33;9.65;;;;;;;;;;5051645;28;20045;-70
2022/05/02 07:09:24;;;;;;;13.20;9.00;;;;;;;;;;5051791;28;20045;-68
2022/05/02 07:12:31;;;;;;;16.55;8.32;;;;;;;;;;5051924;28;20041;-69
2022/05/02 07:15:45;;;;;;;16.63;9.90;;;;;;;;;;5051568;28;20037;-69
2022/05/02 07:18:53;;;;;;;13.13;7.13;;;;;;;;;;5051014;28;20037;-69
2022/05/02 07:21:59;;;;;;;11.75;6.43;;;;;;;;;;5051608;28;20032;-69
2022/05/02 07:25:11;;;;;;;24.90;7.72;;;;;;;;;;5051456;28;20041;-68
2022/05/02 07:28:51;;;;;;;8.68;6.25;;;;;;;;;;5051726;28;20036;-70
2022/05/02 07:31:56;;;;;;;11.93;6.03;;;;;;;;;;5048905;28;20048;-70
2022/05/02 07:35:00;;;;;;;10.77;5.32;;;;;;;;;;5050502;28;20033;-71
2022/05/02 07:38:05;;;;;;;15.02;6.15;;;;;;;;;;5051564;28;20044;-70
2022/05/02 07:41:23;;;;;;;14.32;6.55;;;;;;;;;;5051717;28;20045;-68
2022/05/02 07:44:33;;;;;;;13.32;6.57;;;;;;;;;;5050451;28;20044;-68
2022/05/02 07:47:38;;;;;;;12.05;7.30;;;;;;;;;;5050943;28;20041;-70
2022/05/02 07:50:44;;;;;;;16.33;6.32;;;;;;;;;;5051549;28;20048;-71
2022/05/02 07:53:50;;;;;;;7.20;5.32;;;;;;;;;;5051770;28;20045;-73
2022/05/02 07:57:02;;;;;;;15.18;5.60;;;;;;;;;;5051977;28;20032;-72
2022/05/02 08:00:07;;;;;;;;;;;;;;;;;;5051155;28;20044;-68
2022/05/02 08:03:19;;;;;;;12.32;4.80;;;;;;;;;;5050883;28;19915;-67
2022/05/02 08:06:45;;;;;;;11.27;5.53;;;;;;;;;;5051328;28;20041;-65
2022/05/02 08:10:16;;;;;;;10.57;5.55;;;;;;;;;;5050647;28;20049;-64
2022/05/02 08:13:38;;;;;;;10.52;5.00;;;;;;;;;;5050695;28;20037;-67
2022/05/02 08:16:52;;;;;;;9.35;4.90;;;;;;;;;;5051035;28;20472;-68
2022/05/02 08:19:56;;;;;;;11.57;5.25;;;;;;;;;;5050929;28;20041;-66
2022/05/02 08:30:17;;;;;;;11.75;7.05;;;;;;;;;;5055016;28;20033;-65
2022/05/02 08:33:26;;;;;;;12.90;6.65;;;;;;;;;;5054972;28;20041;-66
2022/05/02 08:36:46;;;;;;;7.25;5.82;;;;;;;;;;5054722;28;20033;-67
2022/05/02 08:40:05;;;;;;;10.00;5.97;;;;;;;;;;5054092;28;20041;-66
2022/05/02 08:43:28;;;;;;;14.88;6.00;;;;;;;;;;5053950;28;20041;-66
2022/05/02 08:47:02;;;;;;;13.10;6.10;;;;;;;;;;5042732;28;20041;-64
2022/05/02 08:50:15;;;;;;;16.08;5.57;;;;;;;;;;5054520;28;20041;-64
2022/05/02 08:53:38;;;;;;;11.43;5.78;;;;;;;;;;5054667;28;20040;-69
2022/05/02 08:56:50;;;;;;;13.88;6.88;;;;;;;;;;5054559;28;20485;-66
2022/05/02 09:00:09;;;;;;;11.52;5.68;;;;;;;;;;5053345;28;20045;-68
2022/05/02 09:03:32;;;;;;;7.80;5.00;;;;;;;;;;5054549;28;20037;-65
2022/05/02 09:07:00;;;;;;;9.00;4.82;;;;;;;;;;5055261;28;20041;-67
2022/05/02 09:10:23;;;;;;;10.75;4.32;;;;;;;;;;5053666;28;20053;-67
2022/05/02 09:13:34;;;;;;;7.93;5.05;;;;;;;;;;5054209;28;20045;-68
2022/05/02 09:16:56;;;;;;;14.50;5.10;;;;;;;;;;5053974;28;20037;-66
2022/05/02 09:20:06;;;;;;;12.15;4.38;;;;;;;;;;5054218;28;20041;-68
2022/05/02 09:23:14;;;;;;;7.03;4.13;;;;;;;;;;5053119;28;20036;-68
2022/05/02 09:26:35;;;;;;;7.75;4.55;;;;;;;;;;5054060;28;20033;-64
2022/05/02 09:29:52;;;;;;;5.82;4.15;;;;;;;;;;5053111;28;20044;-65
2022/05/02 09:32:59;;;;;;;8.38;3.67;;;;;;;;;;5053444;28;20045;-68
2022/05/02 09:36:22;;;;;;;9.70;4.90;;;;;;;;;;5053881;28;20492;-67
2022/05/02 09:39:46;;;;;;;7.85;4.40;;;;;;;;;;5057389;28;20037;-72
2022/05/02 09:43:09;;;;;;;11.43;4.50;;;;;;;;;;5055776;28;20032;-67
2022/05/02 09:50:03;;;;;;;6.87;4.43;;;;;;;;;;5053624;28;20032;-70
2022/05/02 09:53:26;;;;;;;12.18;4.82;;;;;;;;;;5052437;28;20037;-69
2022/05/02 09:56:41;;;;;;;10.27;3.83;;;;;;;;;;5052687;28;20040;-70
2022/05/02 09:59:48;;;;;;;8.52;3.78;;;;;;;;;;5051674;28;20033;-69
2022/05/02 10:02:59;;;;;;;7.60;3.95;;;;;;;;;;5052664;28;20033;-69
2022/05/02 10:06:11;;;;;;;12.63;3.93;;;;;;;;;;5052993;28;20033;-69
2022/05/02 10:09:35;;;;;;;12.50;5.00;;;;;;;;;;5051966;28;20049;-69
2022/05/02 10:13:03;;;;;;;7.88;4.53;;;;;;;;;;5052857;28;20045;-69
2022/05/02 10:16:26;;;;;;;12.77;5.07;;;;;;;;;;5053042;28;20041;-69
2022/05/02 10:19:40;;;;;;;15.65;4.60;;;;;;;;;;5052830;28;20037;-69
2022/05/02 10:22:55;;;;;;;6.05;3.80;;;;;;;;;;5053001;28;20044;-70
2022/05/02 10:26:00;;;;;;;18.15;4.53;;;;;;;;;;5053036;28;20041;-69
2022/05/02 10:29:35;;;;;;;7.00;3.90;;;;;;;;;;5052972;28;20501;-68
2022/05/02 10:32:43;;;;;;;23.67;5.90;;;;;;;;;;5051192;28;20044;-69
2022/05/02 10:35:53;;;;;;;22.48;7.25;;;;;;;;;;5053152;28;20033;-68
2022/05/02 10:39:01;;;;;;;11.52;6.00;;;;;;;;;;5052155;28;20041;-69
2022/05/02 10:42:07;;;;;;;8.98;5.70;;;;;;;;;;5053267;28;20037;-69
2022/05/02 10:45:12;;;;;;;9.65;5.78;;;;;;;;;;5053041;28;20049;-69
2022/05/02 10:48:19;;;;;;;8.73;4.97;;;;;;;;;;5039643;28;20037;-68
2022/05/02 10:51:23;;;;;;;8.10;5.55;;;;;;;;;;5052553;28;20390;-69
2022/05/02 10:54:51;;;;;;;12.43;6.50;;;;;;;;;;5052566;28;20045;-70
2022/05/02 10:57:56;;;;;;;11.65;6.57;;;;;;;;;;5051662;28;20041;-70
2022/05/02 11:01:06;;;;;;;14.38;6.10;;;;;;;;;;5051418;28;20037;-71
2022/05/02 11:04:29;;;;;;;17.95;5.47;;;;;;;;;;5051332;28;20041;-69
2022/05/02 11:07:39;;;;;;;11.35;6.22;;;;;;;;;;5051941;28;20037;-69
2022/05/02 11:10:47;;;;;;;13.85;5.75;;;;;;;;;;5051648;28;20041;-71
2022/05/02 11:14:15;;;;;;;14.38;5.35;;;;;;;;;;5052603;28;20037;-70
2022/05/02 11:17:29;;;;;;;9.57;5.47;;;;;;;;;;5051646;28;20382;-71
2022/05/02 11:20:51;;;;;;;13.32;6.18;;;;;;;;;;5052228;28;20048;-70
2022/05/02 11:24:16;;;;;;;11.32;5.63;;;;;;;;;;5039995;28;20040;-69
2022/05/02 11:27:27;;;;;;;16.88;6.65;;;;;;;;;;5051700;28;20033;-70
2022/05/02 11:30:37;;;;;;;17.45;5.75;;;;;;;;;;5052398;28;20045;-69
2022/05/02 11:33:50;;;;;;;15.10;6.55;;;;;;;;;;5051222;28;20041;-69
2022/05/02 11:36:57;;;;;;;8.48;5.57;;;;;;;;;;5051844;28;20044;-69
2022/05/02 11:40:02;;;;;;;13.27;5.40;;;;;;;;;;5052135;28;20041;-70
2022/05/02 11:43:09;;;;;;;14.18;5.45;;;;;;;;;;5051418;28;20041;-70
2022/05/02 11:46:18;;;;;;;11.27;5.25;;;;;;;;;;5051218;28;20069;-69
2022/05/02 11:49:41;;;;;;;12.68;5.90;;;;;;;;;;5051399;28;20041;-70
2022/05/02 11:52:51;;;;;;;9.02;4.50;;;;;;;;;;5051388;28;20044;-69
2022/05/02 11:55:55;;;;;;;9.52;5.40;;;;;;;;;;5051589;28;20033;-71
2022/05/02 11:59:12;;;;;;;7.60;5.28;;;;;;;;;;5051550;28;20044;-69
2022/05/02 12:02:34;;;;;;;16.45;7.22;;;;;;;;;;5050566;28;20029;-69
2022/05/02 12:05:42;;;;;;;11.98;6.72;;;;;;;;;;5051962;28;20037;-70
2022/05/02 12:08:46;;;;;;;10.57;6.88;;;;;;;;;;5050799;28;20053;-69
2022/05/02 12:11:53;;;;;;;8.27;6.10;;;;;;;;;;5050637;28;20284;-71
2022/05/02 12:15:09;;;;;;;13.38;5.85;;;;;;;;;;5051793;28;20037;-70
2022/05/02 12:18:15;;;;;;;7.85;5.55;;;;;;;;;;5052120;28;20036;-71
2022/05/02 12:21:23;;;;;;;14.55;7.53;;;;;;;;;;5050829;28;20037;-69
2022/05/02 12:24:28;;;;;;;13.60;7.30;;;;;;;;;;5027781;28;20033;-68
2022/05/02 12:27:34;;;;;;;18.98;7.13;;;;;;;;;;5051129;28;20045;-71
2022/05/02 12:30:40;;;;;;;16.35;7.22;;;;;;;;;;5050719;28;20369;-69
2022/05/02 12:33:48;;;;;;;14.68;8.05;;;;;;;;;;5050960;28;20049;-68
2022/05/02 12:36:57;;;;;;;18.80;8.10;;;;;;;;;;5049946;28;20041;-69
2022/05/02 12:40:13;;;;;;;15.55;8.32;;;;;;;;;;5048900;28;20037;-69
2022/05/02 12:43:33;;;;;;;17.17;7.25;;;;;;;;;;5050385;28;20036;-70
2022/05/02 12:46:39;;;;;;;9.38;6.90;;;;;;;;;;5049630;28;20037;-70
2022/05/02 12:49:54;;;;;;;16.38;7.60;;;;;;;;;;5050922;28;20041;-70
2022/05/02 12:53:01;;;;;;;12.85;7.40;;;;;;;;;;5050182;28;20382;-70
2022/05/02 12:56:06;;;;;;;11.95;6.90;;;;;;;;;;5051405;28;20041;-70
2022/05/02 13:02:35;;;;;;;14.98;6.53;;;;;;;;;;5050281;28;20425;-70
2022/05/02 13:05:40;;;;;;;11.52;7.03;;;;;;;;;;5049556;28;20033;-69
2022/05/02 13:08:44;;;;;;;12.75;8.73;;;;;;;;;;5050393;28;20512;-70
2022/05/02 13:11:48;;;;;;;13.15;6.90;;;;;;;;;;5050859;28;20044;-68
2022/05/02 13:14:59;;;;;;;25.45;4.63;;;;;;;;;;5054205;28;20025;-68
2022/05/02 13:18:22;;;;;;;21.85;4.35;;;;;;;;;;5055592;28;20037;-69
2022/05/02 13:21:27;;;;;;;8.98;2.53;;;;;;;;;;5054329;28;20033;-69
2022/05/02 13:24:31;;;;;;;10.48;3.35;;;;;;;;;;5055192;28;20037;-74
2022/05/02 13:27:39;;;;;;;18.17;3.95;;;;;;;;;;5055490;28;20041;-74
2022/05/02 13:30:51;;;;;;;10.50;4.28;;;;;;;;;;5055344;28;20469;-75
2022/05/02 13:33:59;;;;;;;24.05;5.03;;;;;;;;;;5054393;28;20049;-66
2022/05/02 13:37:04;;;;;;;43.38;8.23;;;;;;;;;;5052856;28;20037;-67
2022/05/02 13:40:10;;;;;;;18.13;5.55;;;;;;;;;;5054131;28;20041;-67
2022/05/02 13:43:28;;;;;;;25.50;7.93;;;;;;;;;;5053693;28;20378;-67
2022/05/02 13:46:32;;;;;;;21.33;7.53;;;;;;;;;;5053458;28;20040;-66
2022/05/02 13:50:12;;;;;;;23.75;6.90;;;;;;;;;;5053347;28;20033;-66
2022/05/02 13:53:22;;;;;;;16.92;7.03;;;;;;;;;;5052626;28;20048;-68
2022/05/02 13:56:45;;;;;;;17.63;6.47;;;;;;;;;;5053283;28;20029;-68
2022/05/02 13:59:53;;;;;;;23.05;8.15;;;;;;;;;;5052129;28;20041;-68
2022/05/02 14:03:19;;;;;;;14.60;5.90;;;;;;;;;;5053048;28;20473;-68
2022/05/02 14:06:26;;;;;;;18.40;7.10;;;;;;;;;;5053257;28;20041;-67
2022/05/02 14:09:33;;;;;;;21.13;7.28;;;;;;;;;;5053036;28;20045;-67
2022/05/02 14:12:40;;;;;;;8.02;2.90;;;;;;;;;;5053269;28;20049;-66
2022/05/02 14:15:45;;;;;;;12.38;4.20;;;;;;;;;;5052973;28;20481;-68
2022/05/02 14:18:53;;;;;;;16.65;4.72;;;;;;;;;;5052922;28;20041;-68
2022/05/02 14:21:59;;;;;;;7.10;3.67;;;;;;;;;;5053092;28;20041;-68
2022/05/02 14:25:06;;;;;;;7.93;4.40;;;;;;;;;;5052041;28;20044;-68
2022/05/02 14:28:13;;;;;;;5.60;4.00;;;;;;;;;;5052010;28;20045;-68
2022/05/02 14:31:18;;;;;;;7.13;3.60;;;;;;;;;;5052943;28;20481;-68
2022/05/02 14:34:24;;;;;;;7.25;3.70;;;;;;;;;;5052903;28;20049;-68
2022/05/02 14:37:28;;;;;;;5.55;3.33;;;;;;;;;;5052893;28;20041;-68
2022/05/02 14:40:33;;;;;;;8.15;2.60;;;;;;;;;;5052997;28;20394;-68
2022/05/02 14:43:38;;;;;;;11.70;4.78;;;;;;;;;;5051816;28;20374;-67
2022/05/02 14:46:42;;;;;;;9.10;4.53;;;;;;;;;;5053632;28;20374;-68
2022/05/02 14:49:47;;;;;;;10.43;4.45;;;;;;;;;;5052614;28;20040;-67
2022/05/02 14:52:51;;;;;;;14.50;5.72;;;;;;;;;;5052259;28;20052;-68
2022/05/02 14:55:57;;;;;;;11.82;4.80;;;;;;;;;;5052321;28;20481;-67
2022/05/02 14:59:01;;;;;;;14.02;6.40;;;;;;;;;;5052608;28;20362;-67
2022/05/02 15:02:08;;;;;;;10.88;6.22;;;;;;;;;;5052265;28;20037;-67
2022/05/02 15:05:20;;;;;;;10.88;5.90;;;;;;;;;;5051557;28;20040;-74
2022/05/02 15:08:31;;;;;;;9.27;5.65;;;;;;;;;;5051169;28;20041;-70
2022/05/02 15:11:41;;;;;;;9.20;6.22;;;;;;;;;;5050799;28;20044;-69
2022/05/02 15:14:56;;;;;;;10.63;6.55;;;;;;;;;;5051442;28;20064;-69
2022/05/02 15:18:10;;;;;;;9.35;5.13;;;;;;;;;;5051559;28;20041;-70
2022/05/02 15:21:19;;;;;;;11.27;5.60;;;;;;;;;;5051900;28;20040;-69
2022/05/02 15:24:46;;;;;;;12.55;6.65;;;;;;;;;;5051590;28;20052;-68
2022/05/02 15:38:20;;;;;;;15.20;8.35;;;;;;;;;;5053031;28;20033;-82
2022/05/02 15:41:40;;;;;;;13.30;7.78;;;;;;;;;;5051128;28;20052;-69
2022/05/02 15:44:45;;;;;;;12.77;7.13;;;;;;;;;;5051186;28;20044;-67
2022/05/02 15:47:50;;;;;;;10.30;5.03;;;;;;;;;;5050973;28;20041;-69
2022/05/02 15:51:04;;;;;;;11.40;5.45;;;;;;;;;;5051241;28;20036;-69
2022/05/02 15:54:23;;;;;;;10.40;5.75;;;;;;;;;;5051481;28;20484;-69
2022/05/02 15:57:27;;;;;;;8.02;5.97;;;;;;;;;;5051144;28;20044;-68
2022/05/02 16:00:32;;;;;;;10.25;5.50;;;;;;;;;;5050784;28;20041;-68
2022/05/02 16:03:36;;;;;;;9.18;4.65;;;;;;;;;;5051359;28;20037;-68
2022/05/02 16:06:50;;;;;;;10.77;5.15;;;;;;;;;;5051096;28;20505;-70
2022/05/02 16:13:21;;;;;;;11.43;6.28;;;;;;;;;;5050567;28;20037;-67
2022/05/02 16:16:25;;;;;;;11.80;6.38;;;;;;;;;;5049922;28;20404;-67
2022/05/02 16:19:29;;;;;;;13.52;6.85;;;;;;;;;;5051052;28;20045;-72
2022/05/02 16:22:34;;;;;;;14.43;7.28;;;;;;;;;;5050849;28;20041;-68
2022/05/02 16:25:44;;;;;;;15.25;7.30;;;;;;;;;;5051074;28;20041;-67
2022/05/02 16:28:49;;;;;;;11.50;8.18;;;;;;;;;;5051303;28;20465;-69
2022/05/02 16:32:00;;;;;;;19.80;8.35;;;;;;;;;;5050715;28;20060;-70
2022/05/02 16:35:18;;;;;;;16.13;8.30;;;;;;;;;;5050480;28;20400;-68
2022/05/02 16:38:28;;;;;;;13.63;8.40;;;;;;;;;;5051481;28;20045;-70
2022/05/02 16:41:36;;;;;;;10.98;8.40;;;;;;;;;;5051646;28;20037;-71
2022/05/02 16:44:41;;;;;;;12.85;8.20;;;;;;;;;;5050815;28;20036;-69
2022/05/02 16:47:45;;;;;;;22.25;8.93;;;;;;;;;;5054939;28;20052;-71
2022/05/02 16:50:50;;;;;;;16.45;8.45;;;;;;;;;;5056914;28;20044;-72
2022/05/02 16:53:56;;;;;;;15.32;7.82;;;;;;;;;;5055458;28;20440;-73
2022/05/02 16:57:00;;;;;;;16.38;9.30;;;;;;;;;;5056319;28;20089;-75
2022/05/02 17:00:06;;;;;;;16.02;8.38;;;;;;;;;;5055614;28;20033;-69
2022/05/02 17:03:14;;;;;;;14.15;8.80;;;;;;;;;;5054696;28;20033;-72
2022/05/02 17:06:20;;;;;;;18.55;9.35;;;;;;;;;;5053871;28;20037;-65
2022/05/02 17:09:25;;;;;;;13.00;8.20;;;;;;;;;;5053571;28;20048;-67
2022/05/02 17:12:29;;;;;;;16.90;9.80;;;;;;;;;;5052062;28;20041;-66
2022/05/02 17:15:34;;;;;;;15.40;10.02;;;;;;;;;;5053876;28;20048;-67
2022/05/02 17:18:57;;;;;;;14.85;10.13;;;;;;;;;;5053495;28;20072;-67
2022/05/02 17:22:03;;;;;;;21.33;10.27;;;;;;;;;;5053835;28;20183;-67
2022/05/02 17:25:08;;;;;;;17.58;9.88;;;;;;;;;;5052635;28;20040;-67
2022/05/02 17:28:14;;;;;;;20.65;10.65;;;;;;;;;;5053572;28;20036;-66
2022/05/02 17:31:21;;;;;;;18.60;11.40;;;;;;;;;;5053698;28;20393;-67
2022/05/02 17:34:29;;;;;;;21.30;11.65;;;;;;;;;;5053799;28;20056;-67
2022/05/02 17:37:33;;;;;;;24.20;11.13;;;;;;;;;;5053415;28;20044;-66
2022/05/02 17:40:40;;;;;;;18.20;11.40;;;;;;;;;;5029777;28;20048;-66
2022/05/02 17:43:52;;;;;;;21.75;11.00;;;;;;;;;;5053429;28;20528;-67
2022/05/02 17:46:57;;;;;;;15.77;11.15;;;;;;;;;;5053153;28;20040;-69
2022/05/02 17:50:03;;;;;;;21.08;11.40;;;;;;;;;;5052456;28;20040;-65
2022/05/02 17:53:08;;;;;;;20.27;11.38;;;;;;;;;;5053111;28;20412;-66
2022/05/02 17:56:19;;;;;;;19.77;12.68;;;;;;;;;;5052455;28;20417;-66
2022/05/02 17:59:24;;;;;;;23.67;12.93;;;;;;;;;;5052877;28;20393;-67
2022/05/02 18:02:35;;;;;;;26.40;14.15;;;;;;;;;;5052896;28;20044;-67
2022/05/02 18:05:42;;;;;;;22.70;14.52;;;;;;;;;;5052783;28;20496;-66
2022/05/02 18:08:48;;;;;;;21.33;15.27;;;;;;;;;;5052476;28;20052;-67
2022/05/02 18:15:18;;;;;;;26.02;17.05;;;;;;;;;;5052953;28;20056;-67
2022/05/02 18:18:28;;;;;;;24.25;15.38;;;;;;;;;;5052437;28;20048;-67
2022/05/02 18:21:42;;;;;;;25.08;16.50;;;;;;;;;;5052567;28;20048;-67
2022/05/02 18:24:47;;;;;;;25.15;15.82;;;;;;;;;;5052995;28;20048;-67
2022/05/02 18:27:51;;;;;;;26.80;17.92;;;;;;;;;;5052377;28;20044;-67
2022/05/02 18:31:03;;;;;;;25.85;16.75;;;;;;;;;;5052737;28;20040;-67
2022/05/02 18:34:10;;;;;;;28.52;16.95;;;;;;;;;;5052176;28;20052;-67
2022/05/02 18:37:17;;;;;;;25.20;16.10;;;;;;;;;;5052000;28;20060;-67
2022/05/02 18:40:22;;;;;;;28.83;14.75;;;;;;;;;;5052478;28;20052;-67
2022/05/02 18:43:37;;;;;;;23.92;13.70;;;;;;;;;;5052124;28;20100;-67
2022/05/02 18:53:32;;;;;;;27.05;14.73;;;;;;;;;;5051830;28;20404;-67
2022/05/02 18:56:40;;;;;;;23.20;15.55;;;;;;;;;;5052230;28;20043;-67
2022/05/02 18:59:48;;;;;;;25.95;14.30;;;;;;;;;;5052034;28;20051;-67
2022/05/02 19:02:53;;;;;;;26.77;14.20;;;;;;;;;;5051868;28;20032;-68
2022/05/02 19:06:00;;;;;;;23.33;14.80;;;;;;;;;;5051551;28;20051;-69
2022/05/02 19:09:07;;;;;;;26.73;17.63;;;;;;;;;;5051226;28;20146;-68
2022/05/02 19:12:14;;;;;;;51.83;29.58;;;;;;;;;;5051937;28;20064;-69
2022/05/02 19:15:27;;;;;;;48.90;32.47;;;;;;;;;;5051239;28;20056;-69
2022/05/02 19:18:31;;;;;;;29.70;18.10;;;;;;;;;;5051670;28;20048;-69
2022/05/02 19:21:45;;;;;;;27.13;15.20;;;;;;;;;;5051697;28;20044;-69
2022/05/02 19:25:08;;;;;;;19.23;14.40;;;;;;;;;;5051690;28;20400;-70
2022/05/02 19:28:13;;;;;;;23.08;14.68;;;;;;;;;;5051378;28;20048;-69